Time;durP1;ratioP1;P1;durP2;ratioP2;P2;SDS_P1;SDS_P2;PMS_P1;PMS_P2;Temp;Humidity;BMP_temperature;BMP_pressure;BME280_temperature;BME280_humidity;BME280_pressure;Samples;Min_cycle;Max_cycle;Signal;HPM_P1;HPM_P2
2022/08/12 00:43:47;;;;;;;;;;;;;;;;;;7371058;19;869;-42
2022/08/12 00:48:56;;;;;;;;;;;;;;;;;;7371589;19;1859;-39
2022/08/12 00:52:04;;;;;;;;;;;;;;;;;;7366410;19;1212;-40
2022/08/12 00:54:12;;;;;;;;;;;;;;;;;;7370197;19;1942;-39
2022/08/12 00:56:40;;;;;;;;;;;;;;;;;;7370891;19;891;-40
2022/08/12 00:59:08;;;;;;;;;;;;;;;;;;7367299;19;1845;-40
2022/08/12 01:01:36;;;;;;;;;;;;;;;;;;7368496;19;1289;-40
2022/08/12 01:12:09;;;;;;;;;;;;;;;;;;7368295;19;1193;-39
2022/08/12 01:14:37;;;;;;;;;;;;;;;;;;7371723;19;818;-39
2022/08/12 01:17:06;;;;;;;;;;;;;;;;;;7371761;19;2128;-39
2022/08/12 01:19:34;;;;;;;;;;;;;;;;;;7369826;19;1913;-40
2022/08/12 01:22:02;;;;;;;;;;;;;;;;;;7372130;19;1863;-41
2022/08/12 01:24:30;;;;;;;;;;;;;;;;;;7369826;19;856;-39
2022/08/12 01:26:58;;;;;;;;;;;;;;;;;;7368911;19;831;-40
2022/08/12 01:29:27;;;;;;;;;;;;;;;;;;7368493;19;795;-39
2022/08/12 01:31:55;;;;;;;;;;;;;;;;;;7367363;19;1251;-38
2022/08/12 01:34:23;;;;;;;;;;;;;;;;;;7370458;19;1501;-40
2022/08/12 01:36:52;;;;;;;;;;;;;;;;;;7370030;19;852;-39
2022/08/12 01:39:20;;;;;;;;;;;;;;;;;;7366431;19;1861;-40
2022/08/12 01:41:48;;;;;;;;;;;;;;;;;;7365313;19;1267;-44
2022/08/12 01:44:16;;;;;;;;;;;;;;;;;;7370028;19;824;-42
2022/08/12 01:46:44;;;;;;;;;;;;;;;;;;7368080;19;879;-42
2022/08/12 01:49:12;;;;;;;;;;;;;;;;;;7368285;19;1899;-42
2022/08/12 01:51:41;;;;;;;;;;;;;;;;;;7366801;19;1247;-44
2022/08/12 01:54:09;;;;;;;;;;;;;;;;;;7369311;19;877;-40
2022/08/12 01:56:42;;;;;;;;;;;;;;;;;;7369652;19;819;-38
2022/08/12 02:01:50;;;;;;;;;;;;;;;;;;7370423;19;1334;-40
2022/08/12 02:12:20;;;;;;;;;;;;;;;;;;7368166;19;711;-39
2022/08/12 02:14:49;;;;;;;;;;;;;;;;;;7367720;19;801;-39
2022/08/12 02:17:17;;;;;;;;;;;;;;;;;;7367224;19;852;-40
2022/08/12 02:19:46;;;;;;;;;;;;;;;;;;7364385;19;1853;-40
2022/08/12 02:22:14;;;;;;;;;;;;;;;;;;7367631;19;1896;-39
2022/08/12 02:24:42;;;;;;;;;;;;;;;;;;7368233;19;861;-39
2022/08/12 02:27:10;;;;;;;;;;;;;;;;;;7367603;19;808;-40
2022/08/12 02:29:38;;;;;;;;;;;;;;;;;;7367666;19;1279;-40
2022/08/12 02:32:07;;;;;;;;;;;;;;;;;;7370048;19;1896;-40
2022/08/12 02:34:35;;;;;;;;;;;;;;;;;;7367482;19;791;-40
2022/08/12 02:37:03;;;;;;;;;;;;;;;;;;7366481;19;861;-38
2022/08/12 02:39:32;;;;;;;;;;;;;;;;;;7365842;19;1923;-42
2022/08/12 02:42:00;;;;;;;;;;;;;;;;;;7368095;19;886;-40
2022/08/12 02:44:28;;;;;;;;;;;;;;;;;;7367488;19;806;-40
2022/08/12 02:46:56;;;;;;;;;;;;;;;;;;7366725;19;945;-41
2022/08/12 02:49:25;;;;;;;;;;;;;;;;;;7365990;19;834;-43
2022/08/12 02:51:53;;;;;;;;;;;;;;;;;;7363518;19;1279;-37
2022/08/12 02:54:21;;;;;;;;;;;;;;;;;;7366705;19;882;-37
2022/08/12 02:56:50;;;;;;;;;;;;;;;;;;7369972;19;1912;-37
2022/08/12 02:59:18;;;;;;;;;;;;;;;;;;7365485;19;1859;-37
2022/08/12 03:01:46;;;;;;;;;;;;;;;;;;7364762;19;1400;-42
2022/08/12 03:04:14;;;;;;;;;;;;;;;;;;7367504;19;822;-39
2022/08/12 03:06:42;;;;;;;;;;;;;;;;;;7366419;19;763;-40
2022/08/12 03:09:11;;;;;;;;;;;;;;;;;;7365355;19;920;-40
2022/08/12 03:11:39;;;;;;;;;;;;;;;;;;7364676;19;1913;-41
2022/08/12 03:14:07;;;;;;;;;;;;;;;;;;7366142;19;806;-41
2022/08/12 03:16:35;;;;;;;;;;;;;;;;;;7367104;19;1809;-42
2022/08/12 03:19:03;;;;;;;;;;;;;;;;;;7366258;19;1901;-41
2022/08/12 03:21:31;;;;;;;;;;;;;;;;;;7367928;19;1957;-40
2022/08/12 03:24:00;;;;;;;;;;;;;;;;;;7365920;19;874;-40
2022/08/12 03:26:28;;;;;;;;;;;;;;;;;;7366306;19;819;-40
2022/08/12 03:28:56;;;;;;;;;;;;;;;;;;7366720;19;1896;-39
2022/08/12 03:31:28;;;;;;;;;;;;;;;;;;7370335;19;2152;-37
2022/08/12 03:33:56;;;;;;;;;;;;;;;;;;7372403;19;837;-39
2022/08/12 03:36:24;;;;;;;;;;;;;;;;;;7372239;19;956;-37
2022/08/12 03:39:18;;;;;;;;;;;;;;;;;;7370274;19;1850;-38
2022/08/12 03:41:42;;;;;;;;;;;;;;;;;;7370668;19;2111;-40
2022/08/12 04:00:23;;;;;;;;;;;;;;;;;;7368927;19;1842;-38
2022/08/12 04:02:54;;;;;;;;;;;;;;;;;;7374739;19;1894;-37
2022/08/12 04:05:22;;;;;;;;;;;;;;;;;;7371721;19;753;-43
2022/08/12 04:07:50;;;;;;;;;;;;;;;;;;7371536;19;897;-42
2022/08/12 04:10:18;;;;;;;;;;;;;;;;;;7370378;19;1793;-41
2022/08/12 04:15:27;;;;;;;;;;;;;;;;;;7372656;19;759;-41
2022/08/12 04:17:55;;;;;;;;;;;;;;;;;;7373023;19;1840;-41
2022/08/12 04:20:24;;;;;;;;;;;;;;;;;;7377945;19;1901;-39
2022/08/12 04:22:53;;;;;;;;;;;;;;;;;;7377711;19;780;-38
2022/08/12 04:25:21;;;;;;;;;;;;;;;;;;7377181;19;822;-43
2022/08/12 04:27:49;;;;;;;;;;;;;;;;;;7376165;19;923;-42
2022/08/12 04:30:18;;;;;;;;;;;;;;;;;;7372776;19;1271;-39
2022/08/12 04:32:46;;;;;;;;;;;;;;;;;;7372954;19;871;-46
2022/08/12 04:35:14;;;;;;;;;;;;;;;;;;7372961;19;1873;-37
2022/08/12 04:37:43;;;;;;;;;;;;;;;;;;7371364;19;886;-38
2022/08/12 04:40:12;;;;;;;;;;;;;;;;;;7369078;19;1846;-38
2022/08/12 04:42:40;;;;;;;;;;;;;;;;;;7371552;19;817;-40
2022/08/12 04:45:08;;;;;;;;;;;;;;;;;;7372365;19;838;-40
2022/08/12 04:47:36;;;;;;;;;;;;;;;;;;7374580;19;803;-39
2022/08/12 04:50:04;;;;;;;;;;;;;;;;;;7369607;19;1332;-43
2022/08/12 04:52:32;;;;;;;;;;;;;;;;;;7373599;19;1934;-39
2022/08/12 04:55:00;;;;;;;;;;;;;;;;;;7371719;19;821;-38
2022/08/12 04:57:28;;;;;;;;;;;;;;;;;;7373018;19;873;-40
2022/08/12 04:59:57;;;;;;;;;;;;;;;;;;7369279;19;1845;-37
2022/08/12 05:02:25;;;;;;;;;;;;;;;;;;7370851;19;744;-39
2022/08/12 05:04:54;;;;;;;;;;;;;;;;;;7373496;19;929;-38
2022/08/12 05:07:22;;;;;;;;;;;;;;;;;;7371331;19;872;-40
2022/08/12 05:09:50;;;;;;;;;;;;;;;;;;7373447;19;2137;-40
2022/08/12 05:12:19;;;;;;;;;;;;;;;;;;7372761;19;1836;-39
2022/08/12 05:14:47;;;;;;;;;;;;;;;;;;7371137;19;1136;-39
2022/08/12 05:17:15;;;;;;;;;;;;;;;;;;7370847;19;767;-40
2022/08/12 05:19:43;;;;;;;;;;;;;;;;;;7368889;19;1814;-39
2022/08/12 05:22:11;;;;;;;;;;;;;;;;;;7369955;19;784;-40
2022/08/12 05:24:39;;;;;;;;;;;;;;;;;;7371643;19;1841;-40
2022/08/12 05:27:07;;;;;;;;;;;;;;;;;;7370577;19;897;-39
2022/08/12 05:29:36;;;;;;;;;;;;;;;;;;7369936;19;1273;-39
2022/08/12 05:32:04;;;;;;;;;;;;;;;;;;7370248;19;805;-40
2022/08/12 05:34:33;;;;;;;;;;;;;;;;;;7371385;19;806;-41
2022/08/12 05:37:01;;;;;;;;;;;;;;;;;;7369723;19;822;-40
2022/08/12 05:39:29;;;;;;;;;;;;;;;;;;7367589;19;1837;-43
2022/08/12 05:41:57;;;;;;;;;;;;;;;;;;7368500;19;1961;-40
2022/08/12 05:44:25;;;;;;;;;;;;;;;;;;7369439;19;823;-40
2022/08/12 05:46:53;;;;;;;;;;;;;;;;;;7369834;19;818;-40
2022/08/12 05:49:22;;;;;;;;;;;;;;;;;;7368172;19;885;-40
2022/08/12 05:51:50;;;;;;;;;;;;;;;;;;7366017;19;1267;-40
2022/08/12 05:54:18;;;;;;;;;;;;;;;;;;7369014;19;823;-39
2022/08/12 05:56:47;;;;;;;;;;;;;;;;;;7369008;19;862;-40
2022/08/12 05:59:15;;;;;;;;;;;;;;;;;;7372748;19;1863;-40
2022/08/12 06:01:44;;;;;;;;;;;;;;;;;;7367363;19;1345;-39
2022/08/12 06:04:13;;;;;;;;;;;;;;;;;;7371941;19;838;-40
2022/08/12 06:06:41;;;;;;;;;;;;;;;;;;7371496;19;829;-40
2022/08/12 06:09:09;;;;;;;;;;;;;;;;;;7371216;19;844;-40
2022/08/12 06:11:40;;;;;;;;;;;;;;;;;;7368893;19;1342;-40
2022/08/12 06:14:08;;;;;;;;;;;;;;;;;;7374081;19;1748;-41
2022/08/12 06:16:36;;;;;;;;;;;;;;;;;;7371440;19;830;-40
2022/08/12 06:19:06;;;;;;;;;;;;;;;;;;7370613;19;1850;-40
2022/08/12 06:21:36;;;;;;;;;;;;;;;;;;7370026;19;1334;-39
2022/08/12 06:24:04;;;;;;;;;;;;;;;;;;7371796;19;870;-41
2022/08/12 06:26:33;;;;;;;;;;;;;;;;;;7370499;19;860;-40
2022/08/12 06:29:01;;;;;;;;;;;;;;;;;;7369997;19;770;-41
2022/08/12 06:31:29;;;;;;;;;;;;;;;;;;7372550;19;1876;-40
2022/08/12 06:33:58;;;;;;;;;;;;;;;;;;7373265;19;1376;-40
2022/08/12 06:36:26;;;;;;;;;;;;;;;;;;7370379;19;804;-40
2022/08/12 06:38:54;;;;;;;;;;;;;;;;;;7369981;19;869;-40
2022/08/12 06:44:03;;;;;;;;;;;;;;;;;;7373132;19;791;-39
2022/08/12 06:46:31;;;;;;;;;;;;;;;;;;7373473;19;1611;-40
2022/08/12 06:49:00;;;;;;;;;;;;;;;;;;7373443;19;1254;-40
2022/08/12 06:51:28;;;;;;;;;;;;;;;;;;7372512;19;1353;-40
2022/08/12 06:53:56;;;;;;;;;;;;;;;;;;7370018;19;802;-39
2022/08/12 06:56:24;;;;;;;;;;;;;;;;;;7371481;19;783;-39
2022/08/12 06:58:54;;;;;;;;;;;;;;;;;;7371108;19;839;-39
2022/08/12 07:01:22;;;;;;;;;;;;;;;;;;7368142;19;1849;-40
2022/08/12 07:03:52;;;;;;;;;;;;;;;;;;7371132;19;1793;-39
2022/08/12 07:06:20;;;;;;;;;;;;;;;;;;7375869;19;812;-39
2022/08/12 07:08:48;;;;;;;;;;;;;;;;;;7375470;19;824;-40
2022/08/12 07:11:16;;;;;;;;;;;;;;;;;;7375363;19;1336;-40
2022/08/12 07:13:44;;;;;;;;;;;;;;;;;;7376926;19;881;-41
2022/08/12 07:16:12;;;;;;;;;;;;;;;;;;7378496;19;854;-39
2022/08/12 07:18:41;;;;;;;;;;;;;;;;;;7377409;19;803;-39
2022/08/12 07:21:09;;;;;;;;;;;;;;;;;;7376341;19;1851;-40
2022/08/12 07:23:37;;;;;;;;;;;;;;;;;;7376126;19;825;-38
2022/08/12 07:26:05;;;;;;;;;;;;;;;;;;7376426;19;792;-39
2022/08/12 07:28:34;;;;;;;;;;;;;;;;;;7376168;19;743;-38
2022/08/12 07:31:03;;;;;;;;;;;;;;;;;;7374845;19;1278;-39
2022/08/12 07:33:31;;;;;;;;;;;;;;;;;;7375469;19;855;-39
2022/08/12 07:36:01;;;;;;;;;;;;;;;;;;7374461;19;854;-40
2022/08/12 07:38:29;;;;;;;;;;;;;;;;;;7379382;19;1618;-40
2022/08/12 07:40:57;;;;;;;;;;;;;;;;;;7373942;19;1822;-39
2022/08/12 07:43:26;;;;;;;;;;;;;;;;;;7373685;19;808;-39
2022/08/12 07:45:55;;;;;;;;;;;;;;;;;;7375621;19;1031;-39
2022/08/12 07:48:23;;;;;;;;;;;;;;;;;;7373298;19;922;-40
2022/08/12 07:50:51;;;;;;;;;;;;;;;;;;7372532;19;1268;-40
2022/08/12 07:53:19;;;;;;;;;;;;;;;;;;7374001;19;1901;-40
2022/08/12 07:55:47;;;;;;;;;;;;;;;;;;7374323;19;817;-39
2022/08/12 07:58:16;;;;;;;;;;;;;;;;;;7374214;19;954;-40
2022/08/12 08:00:44;;;;;;;;;;;;;;;;;;7372746;19;1842;-40
2022/08/12 08:03:12;;;;;;;;;;;;;;;;;;7372149;19;868;-43
2022/08/12 08:05:40;;;;;;;;;;;;;;;;;;7373646;19;744;-39
2022/08/12 08:08:08;;;;;;;;;;;;;;;;;;7374523;19;802;-39
2022/08/12 08:10:36;;;;;;;;;;;;;;;;;;7375048;19;1861;-40
2022/08/12 08:13:03;;;;;;;;;;;;;;;;;;7372548;19;830;-40
2022/08/12 08:15:33;;;;;;;;;;;;;;;;;;7373267;19;767;-40
2022/08/12 08:18:02;;;;;;;;;;;;;;;;;;7376816;19;1889;-40
2022/08/12 08:20:32;;;;;;;;;;;;;;;;;;7371782;19;1846;-41
2022/08/12 08:23:00;;;;;;;;;;;;;;;;;;7373698;19;742;-40
2022/08/12 08:25:32;;;;;;;;;;;;;;;;;;7373467;19;893;-41
2022/08/12 08:28:01;;;;;;;;;;;;;;;;;;7377054;19;1872;-40
2022/08/12 08:30:29;;;;;;;;;;;;;;;;;;7372022;19;1180;-40
2022/08/12 08:32:58;;;;;;;;;;;;;;;;;;7373902;19;797;-40
2022/08/12 08:35:26;;;;;;;;;;;;;;;;;;7340476;19;13490;-39
2022/08/12 08:37:54;;;;;;;;;;;;;;;;;;7373587;19;804;-40
2022/08/12 08:43:03;;;;;;;;;;;;;;;;;;7374724;19;1717;-40
2022/08/12 08:45:31;;;;;;;;;;;;;;;;;;7374558;19;904;-40
2022/08/12 08:47:59;;;;;;;;;;;;;;;;;;7372889;19;799;-40
2022/08/12 08:50:28;;;;;;;;;;;;;;;;;;7371787;19;1284;-39
2022/08/12 08:52:56;;;;;;;;;;;;;;;;;;7372239;19;872;-40
2022/08/12 08:55:24;;;;;;;;;;;;;;;;;;7372574;19;785;-40
2022/08/12 08:57:52;;;;;;;;;;;;;;;;;;7371509;19;799;-40
2022/08/12 09:00:20;;;;;;;;;;;;;;;;;;7373328;19;1861;-42
2022/08/12 09:02:48;;;;;;;;;;;;;;;;;;7375700;19;1652;-40
2022/08/12 09:05:17;;;;;;;;;;;;;;;;;;7375467;19;1429;-41
2022/08/12 09:07:45;;;;;;;;;;;;;;;;;;7372133;19;884;-40
2022/08/12 09:10:15;;;;;;;;;;;;;;;;;;7369638;19;1258;-42
2022/08/12 09:15:24;;;;;;;;;;;;;;;;;;7372196;19;745;-41
2022/08/12 09:17:54;;;;;;;;;;;;;;;;;;7374897;19;1880;-40
2022/08/12 09:20:22;;;;;;;;;;;;;;;;;;7370391;19;1846;-40
2022/08/12 09:22:51;;;;;;;;;;;;;;;;;;7373583;19;939;-40
2022/08/12 09:25:20;;;;;;;;;;;;;;;;;;7375532;19;1871;-40
2022/08/12 09:27:48;;;;;;;;;;;;;;;;;;7371201;19;894;-41
2022/08/12 09:30:17;;;;;;;;;;;;;;;;;;7370289;19;1243;-40
2022/08/12 09:32:49;;;;;;;;;;;;;;;;;;7376000;19;1903;-40
2022/08/12 09:35:18;;;;;;;;;;;;;;;;;;7372228;19;720;-40
2022/08/12 09:37:46;;;;;;;;;;;;;;;;;;7372195;19;852;-40
2022/08/12 09:40:14;;;;;;;;;;;;;;;;;;7369951;19;1849;-40
2022/08/12 09:45:23;;;;;;;;;;;;;;;;;;7372830;19;1753;-40
2022/08/12 09:47:51;;;;;;;;;;;;;;;;;;7370662;19;811;-40
2022/08/12 09:50:20;;;;;;;;;;;;;;;;;;7370264;19;1322;-40
2022/08/12 09:52:51;;;;;;;;;;;;;;;;;;7371896;19;959;-41
2022/08/12 09:55:19;;;;;;;;;;;;;;;;;;7370434;19;834;-40
2022/08/12 09:57:50;;;;;;;;;;;;;;;;;;7372262;19;805;-40
2022/08/12 10:00:18;;;;;;;;;;;;;;;;;;7370751;19;1846;-40
2022/08/12 10:02:48;;;;;;;;;;;;;;;;;;7375237;19;1766;-39
2022/08/12 10:05:16;;;;;;;;;;;;;;;;;;7372622;19;881;-41
2022/08/12 10:07:44;;;;;;;;;;;;;;;;;;7372188;19;821;-40
2022/08/12 10:10:12;;;;;;;;;;;;;;;;;;7368358;19;1372;-40
2022/08/12 10:15:21;;;;;;;;;;;;;;;;;;7370089;19;856;-41
2022/08/12 10:17:52;;;;;;;;;;;;;;;;;;7368495;19;1784;-41
2022/08/12 10:20:20;;;;;;;;;;;;;;;;;;7369413;19;1822;-41
2022/08/12 10:22:48;;;;;;;;;;;;;;;;;;7370694;19;806;-44
2022/08/12 10:30:38;;;;;;;;;;;;;;;;;;7368705;19;1714;-41
2022/08/12 10:33:06;;;;;;;;;;;;;;;;;;7370247;19;859;-40
2022/08/12 10:35:35;;;;;;;;;;;;;;;;;;7370561;19;1933;-41
2022/08/12 10:38:03;;;;;;;;;;;;;;;;;;7374979;19;811;-41
2022/08/12 10:40:32;;;;;;;;;;;;;;;;;;7368189;19;1841;-40
2022/08/12 10:45:41;;;;;;;;;;;;;;;;;;7371560;19;857;-40
2022/08/12 10:48:09;;;;;;;;;;;;;;;;;;7370093;19;843;-40
2022/08/12 10:50:39;;;;;;;;;;;;;;;;;;7367599;19;2136;-40
2022/08/12 10:53:10;;;;;;;;;;;;;;;;;;7374553;19;1855;-39
2022/08/12 10:55:38;;;;;;;;;;;;;;;;;;7370118;19;813;-41
2022/08/12 10:58:06;;;;;;;;;;;;;;;;;;7370114;19;881;-41
2022/08/12 11:00:37;;;;;;;;;;;;;;;;;;7367927;19;1865;-41
2022/08/12 11:03:06;;;;;;;;;;;;;;;;;;7369550;19;714;-41
2022/08/12 11:05:35;;;;;;;;;;;;;;;;;;7371017;19;1841;-41
2022/08/12 11:08:03;;;;;;;;;;;;;;;;;;7369829;19;860;-46
2022/08/12 11:10:32;;;;;;;;;;;;;;;;;;7367186;19;1375;-40
2022/08/12 11:13:00;;;;;;;;;;;;;;;;;;7369312;19;827;-40
2022/08/12 11:15:28;;;;;;;;;;;;;;;;;;7369931;19;808;-44
2022/08/12 11:17:56;;;;;;;;;;;;;;;;;;7364737;19;867;-42
2022/08/12 11:20:25;;;;;;;;;;;;;;;;;;7366161;19;1857;-42
2022/08/12 11:22:53;;;;;;;;;;;;;;;;;;7366215;19;836;-44
2022/08/12 11:25:21;;;;;;;;;;;;;;;;;;7366200;19;819;-44
2022/08/12 11:27:49;;;;;;;;;;;;;;;;;;7365827;19;803;-45
2022/08/12 11:30:17;;;;;;;;;;;;;;;;;;7365563;19;1298;-51
2022/08/12 11:32:45;;;;;;;;;;;;;;;;;;7367729;19;781;-43
2022/08/12 11:35:13;;;;;;;;;;;;;;;;;;7372543;19;1845;-41
2022/08/12 11:37:41;;;;;;;;;;;;;;;;;;7367996;19;827;-41
2022/08/12 11:40:10;;;;;;;;;;;;;;;;;;7365665;19;1264;-41
2022/08/12 11:42:38;;;;;;;;;;;;;;;;;;7365245;19;1846;-42
2022/08/12 11:45:06;;;;;;;;;;;;;;;;;;7365058;19;886;-41
2022/08/12 11:47:34;;;;;;;;;;;;;;;;;;7364961;19;1893;-43
2022/08/12 11:50:02;;;;;;;;;;;;;;;;;;7362971;19;1243;-42
2022/08/12 11:52:30;;;;;;;;;;;;;;;;;;7371066;19;811;-42
2022/08/12 11:54:58;;;;;;;;;;;;;;;;;;7371176;19;819;-43
2022/08/12 11:57:27;;;;;;;;;;;;;;;;;;7371182;19;736;-44
2022/08/12 11:59:55;;;;;;;;;;;;;;;;;;7370509;19;1267;-44
2022/08/12 12:02:23;;;;;;;;;;;;;;;;;;7370892;19;1918;-42
2022/08/12 12:04:51;;;;;;;;;;;;;;;;;;7371970;19;831;-42
2022/08/12 12:07:19;;;;;;;;;;;;;;;;;;7374576;19;1768;-42
2022/08/12 12:09:48;;;;;;;;;;;;;;;;;;7371581;19;1274;-44
2022/08/12 12:12:16;;;;;;;;;;;;;;;;;;7373272;19;1236;-44
2022/08/12 12:14:44;;;;;;;;;;;;;;;;;;7372163;19;830;-42
2022/08/12 12:17:12;;;;;;;;;;;;;;;;;;7377414;19;1809;-43
2022/08/12 12:19:40;;;;;;;;;;;;;;;;;;7374765;19;1304;-42
2022/08/12 12:22:08;;;;;;;;;;;;;;;;;;7374486;19;1830;-52
2022/08/12 12:24:36;;;;;;;;;;;;;;;;;;7377765;19;841;-44
2022/08/12 12:27:07;;;;;;;;;;;;;;;;;;7374349;19;865;-43
2022/08/12 12:29:35;;;;;;;;;;;;;;;;;;7371792;19;1892;-43
2022/08/12 12:32:03;;;;;;;;;;;;;;;;;;7369087;19;880;-40
2022/08/12 12:34:32;;;;;;;;;;;;;;;;;;7371395;19;990;-41
2022/08/12 12:37:00;;;;;;;;;;;;;;;;;;7370900;19;854;-41
2022/08/12 12:39:28;;;;;;;;;;;;;;;;;;7369251;19;861;-41
2022/08/12 12:41:56;;;;;;;;;;;;;;;;;;7367224;19;1853;-48
2022/08/12 12:44:24;;;;;;;;;;;;;;;;;;7370976;19;1857;-44
2022/08/12 12:46:52;;;;;;;;;;;;;;;;;;7370066;19;891;-41
2022/08/12 12:49:20;;;;;;;;;;;;;;;;;;7369167;19;819;-44
2022/08/12 12:51:49;;;;;;;;;;;;;;;;;;7367313;19;1311;-42
2022/08/12 12:54:17;;;;;;;;;;;;;;;;;;7370552;19;727;-46
2022/08/12 12:56:48;;;;;;;;;;;;;;;;;;7369247;19;862;-47
2022/08/12 12:59:17;;;;;;;;;;;;;;;;;;7372069;19;1926;-42
2022/08/12 13:01:45;;;;;;;;;;;;;;;;;;7366039;19;1830;-42
2022/08/12 13:04:13;;;;;;;;;;;;;;;;;;7368481;19;879;-41
2022/08/12 13:06:41;;;;;;;;;;;;;;;;;;7368836;19;868;-43
2022/08/12 13:09:11;;;;;;;;;;;;;;;;;;7368671;19;846;-42
2022/08/12 13:11:40;;;;;;;;;;;;;;;;;;7367172;19;1917;-44
2022/08/12 13:14:08;;;;;;;;;;;;;;;;;;7369742;19;846;-44
2022/08/12 13:16:37;;;;;;;;;;;;;;;;;;7369152;19;875;-43
2022/08/12 13:19:05;;;;;;;;;;;;;;;;;;7369415;19;878;-43
2022/08/12 13:21:33;;;;;;;;;;;;;;;;;;7366967;19;1846;-42
2022/08/12 13:24:02;;;;;;;;;;;;;;;;;;7371511;19;1690;-42
2022/08/12 13:26:33;;;;;;;;;;;;;;;;;;7370852;19;1909;-48
2022/08/12 13:29:01;;;;;;;;;;;;;;;;;;7368922;19;714;-44
2022/08/12 13:31:29;;;;;;;;;;;;;;;;;;7366659;19;1283;-42
2022/08/12 13:33:58;;;;;;;;;;;;;;;;;;7368404;19;1877;-44
2022/08/12 13:36:27;;;;;;;;;;;;;;;;;;7370180;19;1856;-45
2022/08/12 13:38:56;;;;;;;;;;;;;;;;;;7368144;19;862;-45
2022/08/12 13:41:37;;;;;;;;;;;;;;;;;;7367351;19;1849;-43
2022/08/12 13:44:05;;;;;;;;;;;;;;;;;;7369596;19;875;-46
2022/08/12 13:46:34;;;;;;;;;;;;;;;;;;7368744;19;807;-48
2022/08/12 13:49:06;;;;;;;;;;;;;;;;;;7368428;19;898;-46
2022/08/12 13:51:34;;;;;;;;;;;;;;;;;;7369174;19;2167;-44
2022/08/12 13:54:03;;;;;;;;;;;;;;;;;;7368669;19;728;-43
2022/08/12 13:56:32;;;;;;;;;;;;;;;;;;7368552;19;807;-45
2022/08/12 13:59:01;;;;;;;;;;;;;;;;;;7367373;19;862;-44
2022/08/12 14:01:29;;;;;;;;;;;;;;;;;;7366354;19;1865;-44
2022/08/12 14:03:57;;;;;;;;;;;;;;;;;;7368444;19;2151;-42
2022/08/12 14:06:27;;;;;;;;;;;;;;;;;;7368856;19;836;-42
2022/08/12 14:08:55;;;;;;;;;;;;;;;;;;7368055;19;895;-43
2022/08/12 14:11:23;;;;;;;;;;;;;;;;;;7366821;19;1295;-45
2022/08/12 14:13:51;;;;;;;;;;;;;;;;;;7367732;19;803;-42
2022/08/12 14:16:20;;;;;;;;;;;;;;;;;;7368801;19;863;-41
2022/08/12 14:18:48;;;;;;;;;;;;;;;;;;7369210;19;1851;-43
2022/08/12 14:21:16;;;;;;;;;;;;;;;;;;7366352;19;1904;-42
2022/08/12 14:23:49;;;;;;;;;;;;;;;;;;7369641;19;828;-41
2022/08/12 14:26:19;;;;;;;;;;;;;;;;;;7368633;19;781;-42
2022/08/12 14:28:48;;;;;;;;;;;;;;;;;;7367404;19;800;-41
2022/08/12 14:31:16;;;;;;;;;;;;;;;;;;7365733;19;1282;-43
2022/08/12 14:33:47;;;;;;;;;;;;;;;;;;7370925;19;1882;-45
2022/08/12 14:36:15;;;;;;;;;;;;;;;;;;7367896;19;825;-44
2022/08/12 14:38:44;;;;;;;;;;;;;;;;;;7366572;19;800;-42
2022/08/12 14:41:12;;;;;;;;;;;;;;;;;;7363650;19;1342;-44
2022/08/12 14:43:40;;;;;;;;;;;;;;;;;;7363918;19;1842;-44
2022/08/12 14:46:10;;;;;;;;;;;;;;;;;;7366805;19;1873;-48
2022/08/12 14:48:38;;;;;;;;;;;;;;;;;;7366476;19;925;-42
2022/08/12 14:51:07;;;;;;;;;;;;;;;;;;7365674;19;1287;-42
2022/08/12 14:53:35;;;;;;;;;;;;;;;;;;7368745;19;897;-42
2022/08/12 14:56:03;;;;;;;;;;;;;;;;;;7365849;19;813;-42
2022/08/12 14:58:31;;;;;;;;;;;;;;;;;;7366584;19;828;-42
2022/08/12 15:03:40;;;;;;;;;;;;;;;;;;7367003;19;1838;-44
2022/08/12 15:06:08;;;;;;;;;;;;;;;;;;7366071;19;816;-43
2022/08/12 15:08:37;;;;;;;;;;;;;;;;;;7364813;19;890;-41
2022/08/12 15:11:05;;;;;;;;;;;;;;;;;;7363935;19;1293;-44
2022/08/12 15:13:33;;;;;;;;;;;;;;;;;;7365549;19;772;-42
2022/08/12 15:16:02;;;;;;;;;;;;;;;;;;7368753;19;1906;-42
2022/08/12 15:18:30;;;;;;;;;;;;;;;;;;7364519;19;823;-41
2022/08/12 15:20:58;;;;;;;;;;;;;;;;;;7367299;19;1352;-40
2022/08/12 15:23:29;;;;;;;;;;;;;;;;;;7366535;19;1838;-44
2022/08/12 15:25:57;;;;;;;;;;;;;;;;;;7372180;19;1315;-43
2022/08/12 15:28:25;;;;;;;;;;;;;;;;;;7371091;19;1955;-42
2022/08/12 15:30:54;;;;;;;;;;;;;;;;;;7374968;19;1983;-43
2022/08/12 15:33:22;;;;;;;;;;;;;;;;;;7372115;19;847;-47
2022/08/12 15:35:50;;;;;;;;;;;;;;;;;;7373365;19;1890;-46
2022/08/12 15:38:18;;;;;;;;;;;;;;;;;;7370459;19;796;-41
2022/08/12 15:40:48;;;;;;;;;;;;;;;;;;7371271;19;1283;-41
2022/08/12 15:43:16;;;;;;;;;;;;;;;;;;7372384;19;1845;-44
2022/08/12 15:45:44;;;;;;;;;;;;;;;;;;7372924;19;804;-42
2022/08/12 15:48:13;;;;;;;;;;;;;;;;;;7372195;19;831;-43
2022/08/12 15:50:41;;;;;;;;;;;;;;;;;;7370582;19;1305;-44
2022/08/12 15:53:10;;;;;;;;;;;;;;;;;;7370734;19;899;-43
2022/08/12 15:55:40;;;;;;;;;;;;;;;;;;7370761;19;910;-45
2022/08/12 15:58:08;;;;;;;;;;;;;;;;;;7375302;19;1895;-43
2022/08/12 16:00:36;;;;;;;;;;;;;;;;;;7370848;19;1278;-42
2022/08/12 16:03:04;;;;;;;;;;;;;;;;;;7369364;19;1837;-43
2022/08/12 16:05:32;;;;;;;;;;;;;;;;;;7370802;19;804;-44
2022/08/12 16:08:00;;;;;;;;;;;;;;;;;;7370273;19;861;-44
2022/08/12 16:10:28;;;;;;;;;;;;;;;;;;7368402;19;1882;-44
2022/08/12 16:12:56;;;;;;;;;;;;;;;;;;7371183;19;895;-44
2022/08/12 16:15:25;;;;;;;;;;;;;;;;;;7371154;19;877;-46
2022/08/12 16:17:54;;;;;;;;;;;;;;;;;;7374001;19;828;-43
2022/08/12 16:20:22;;;;;;;;;;;;;;;;;;7369326;19;1291;-41
2022/08/12 16:22:50;;;;;;;;;;;;;;;;;;7368647;19;1854;-41
2022/08/12 16:25:19;;;;;;;;;;;;;;;;;;7370881;19;1684;-44
2022/08/12 16:27:50;;;;;;;;;;;;;;;;;;7370332;19;951;-42
2022/08/12 16:30:18;;;;;;;;;;;;;;;;;;7368884;19;1275;-44
2022/08/12 16:32:46;;;;;;;;;;;;;;;;;;7369800;19;843;-42
2022/08/12 16:35:15;;;;;;;;;;;;;;;;;;7368302;19;808;-48
2022/08/12 16:37:43;;;;;;;;;;;;;;;;;;7369375;19;910;-43
2022/08/12 16:40:11;;;;;;;;;;;;;;;;;;7371791;19;1890;-42
2022/08/12 16:42:40;;;;;;;;;;;;;;;;;;7369012;19;1859;-46
2022/08/12 16:45:08;;;;;;;;;;;;;;;;;;7373536;19;776;-41
2022/08/12 16:47:36;;;;;;;;;;;;;;;;;;7369547;19;791;-41
2022/08/12 16:50:05;;;;;;;;;;;;;;;;;;7369528;19;1258;-42
2022/08/12 16:52:33;;;;;;;;;;;;;;;;;;7369502;19;878;-45
2022/08/12 16:55:02;;;;;;;;;;;;;;;;;;7370770;19;1661;-47
2022/08/12 16:57:30;;;;;;;;;;;;;;;;;;7369504;19;756;-45
2022/08/12 16:59:58;;;;;;;;;;;;;;;;;;7367011;19;1306;-50
2022/08/12 17:02:28;;;;;;;;;;;;;;;;;;7369867;19;1850;-47
2022/08/12 17:04:58;;;;;;;;;;;;;;;;;;7368602;19;889;-44
2022/08/12 17:07:27;;;;;;;;;;;;;;;;;;7369058;19;734;-43
2022/08/12 17:09:55;;;;;;;;;;;;;;;;;;7368333;19;1369;-44
2022/08/12 17:12:27;;;;;;;;;;;;;;;;;;7369941;19;1765;-44
2022/08/12 17:14:56;;;;;;;;;;;;;;;;;;7369058;19;875;-42
2022/08/12 17:17:25;;;;;;;;;;;;;;;;;;7372161;19;3532;-39
2022/08/12 17:20:02;;;;;;;;;;;;;;;;;;7377197;19;1345;-39
2022/08/12 17:22:30;;;;;;;;;;;;;;;;;;7372263;19;1845;-39
2022/08/12 17:24:59;;;;;;;;;;;;;;;;;;7374351;19;867;-38
2022/08/12 17:27:27;;;;;;;;;;;;;;;;;;7372372;19;1184;-39
2022/08/12 17:29:55;;;;;;;;;;;;;;;;;;7379731;19;1931;-38
2022/08/12 17:32:23;;;;;;;;;;;;;;;;;;7377051;19;866;-38
2022/08/12 17:37:47;;;;;;;;;;;;;;;;;;7382859;19;2759;-39
2022/08/12 17:40:16;;;;;;;;;;;;;;;;;;7380728;19;783;-39
2022/08/12 17:42:44;;;;;;;;;;;;;;;;;;7372649;19;1833;-38
2022/08/12 17:45:12;;;;;;;;;;;;;;;;;;7375833;19;1885;-39
2022/08/12 17:47:40;;;;;;;;;;;;;;;;;;7370973;19;1364;-39
2022/08/12 17:50:08;;;;;;;;;;;;;;;;;;7371030;19;881;-39
2022/08/12 17:52:37;;;;;;;;;;;;;;;;;;7372414;19;806;-39
2022/08/12 17:55:05;;;;;;;;;;;;;;;;;;7375276;19;928;-39
2022/08/12 17:57:33;;;;;;;;;;;;;;;;;;7370045;19;1228;-38
2022/08/12 18:00:02;;;;;;;;;;;;;;;;;;7380446;19;769;-38
2022/08/12 18:02:33;;;;;;;;;;;;;;;;;;7391306;19;1882;-39
2022/08/12 18:05:01;;;;;;;;;;;;;;;;;;7386954;19;780;-40
2022/08/12 18:07:29;;;;;;;;;;;;;;;;;;7373879;19;1283;-39
2022/08/12 18:09:57;;;;;;;;;;;;;;;;;;7373567;19;822;-38
2022/08/12 18:12:43;;;;;;;;;;;;;;;;;;7380043;19;2071;-39
2022/08/12 18:15:11;;;;;;;;;;;;;;;;;;7387473;19;700;-39
2022/08/12 18:17:42;;;;;;;;;;;;;;;;;;7383904;19;1621;-40
2022/08/12 18:20:16;;;;;;;;;;;;;;;;;;7379301;19;750;-38
2022/08/12 18:22:44;;;;;;;;;;;;;;;;;;7371874;19;1861;-38
2022/08/12 18:25:12;;;;;;;;;;;;;;;;;;7371823;19;890;-38
2022/08/12 18:27:40;;;;;;;;;;;;;;;;;;7371535;19;1432;-38
2022/08/12 18:30:08;;;;;;;;;;;;;;;;;;7368988;19;790;-39
2022/08/12 18:32:36;;;;;;;;;;;;;;;;;;7369470;19;748;-39
2022/08/12 18:35:04;;;;;;;;;;;;;;;;;;7371740;19;1844;-39
2022/08/12 18:37:33;;;;;;;;;;;;;;;;;;7369151;19;1902;-38
2022/08/12 18:42:41;;;;;;;;;;;;;;;;;;7369649;19;1846;-39
2022/08/12 18:45:09;;;;;;;;;;;;;;;;;;7370511;19;855;-38
2022/08/12 18:47:38;;;;;;;;;;;;;;;;;;7367017;19;1325;-38
2022/08/12 18:50:06;;;;;;;;;;;;;;;;;;7369587;19;883;-38
2022/08/12 18:52:34;;;;;;;;;;;;;;;;;;7374534;19;1899;-38
2022/08/12 18:55:02;;;;;;;;;;;;;;;;;;7369371;19;843;-39
2022/08/12 18:57:31;;;;;;;;;;;;;;;;;;7368194;19;1297;-39
2022/08/12 19:00:00;;;;;;;;;;;;;;;;;;7368717;19;800;-39
2022/08/12 19:02:31;;;;;;;;;;;;;;;;;;7369711;19;899;-38
2022/08/12 19:04:59;;;;;;;;;;;;;;;;;;7365879;19;1852;-39
2022/08/12 19:07:27;;;;;;;;;;;;;;;;;;7367612;19;1929;-39
2022/08/12 19:09:56;;;;;;;;;;;;;;;;;;7367766;19;839;-39
2022/08/12 19:15:06;;;;;;;;;;;;;;;;;;7368194;19;792;-39
2022/08/12 19:17:35;;;;;;;;;;;;;;;;;;7365863;19;1292;-37